Time;durP1;ratioP1;P1;durP2;ratioP2;P2;SDS_P1;SDS_P2;PMS_P1;PMS_P2;Temp;Humidity;BMP_temperature;BMP_pressure;BME280_temperature;BME280_humidity;BME280_pressure;Samples;Min_cycle;Max_cycle;Signal;HPM_P1;HPM_P2
2022/10/18 00:02:10;;;;;;;;;;;17.60;99.90;;;;;;5071115;28;19915;-66
2022/10/18 00:04:36;;;;;;;;;;;17.60;99.90;;;;;;5071120;28;19919;-68
2022/10/18 00:07:03;;;;;;;;;;;17.50;99.90;;;;;;5088102;28;19982;-69
2022/10/18 00:09:30;;;;;;;;;;;17.60;99.90;;;;;;5092694;28;19916;-68
2022/10/18 00:11:57;;;;;;;;;;;17.80;99.90;;;;;;5093056;28;19908;-66
2022/10/18 00:14:23;;;;;;;;;;;17.80;99.90;;;;;;5092872;28;19908;-68
2022/10/18 00:16:50;;;;;;;;;;;18.10;99.90;;;;;;5092760;28;19921;-66
2022/10/18 00:19:17;;;;;;;;;;;18.30;99.90;;;;;;5090272;28;19928;-66
2022/10/18 00:21:43;;;;;;;;;;;18.20;99.90;;;;;;5092737;28;19912;-69
2022/10/18 00:24:11;;;;;;;;;;;18.40;99.90;;;;;;5092853;28;19912;-68
2022/10/18 00:26:37;;;;;;;;;;;18.60;99.90;;;;;;5092582;28;19954;-68
2022/10/18 00:29:05;;;;;;;;;;;18.70;99.90;;;;;;5087572;28;20433;-69
2022/10/18 00:31:33;;;;;;;;;;;18.70;99.90;;;;;;5092514;28;20039;-71
2022/10/18 00:34:01;;;;;;;;;;;18.70;99.90;;;;;;5092515;28;19908;-66
2022/10/18 00:36:29;;;;;;;;;;;18.60;99.90;;;;;;5092375;28;20274;-68
2022/10/18 00:38:56;;;;;;;;;;;18.50;99.90;;;;;;5092008;28;19927;-67
2022/10/18 00:41:24;;;;;;;;;;;18.60;99.90;;;;;;5092536;28;20031;-66
2022/10/18 00:43:51;;;;;;;;;;;18.60;99.90;;;;;;5090212;28;19962;-66
2022/10/18 00:46:17;;;;;;;;;;;18.60;99.90;;;;;;5092467;28;19916;-68
2022/10/18 00:48:44;;;;;;;;;;;18.60;99.90;;;;;;5092108;28;19916;-69
2022/10/18 00:51:11;;;;;;;;;;;18.40;99.90;;;;;;5092233;28;19981;-70
2022/10/18 00:53:38;;;;;;;;;;;18.30;99.90;;;;;;5092081;28;20439;-68
2022/10/18 00:56:05;;;;;;;;;;;18.30;99.90;;;;;;5092295;28;19915;-69
2022/10/18 00:58:32;;;;;;;;;;;18.30;99.90;;;;;;5090672;28;19964;-69
2022/10/18 01:00:59;;;;;;;;;;;18.40;99.90;;;;;;5081835;28;20291;-67
2022/10/18 01:03:26;;;;;;;;;;;18.40;99.90;;;;;;5071937;28;19923;-66
2022/10/18 01:05:52;;;;;;;;;;;18.50;99.90;;;;;;5071994;28;19957;-66
2022/10/18 01:08:31;;;;;;;;;;;18.60;99.90;;;;;;5082067;28;19908;-67
2022/10/18 01:11:03;;;;;;;;;;;18.60;99.90;;;;;;5091650;28;19916;-66
2022/10/18 01:13:36;;;;;;;;;;;18.70;99.90;;;;;;5091997;28;19908;-71
2022/10/18 01:16:12;;;;;;;;;;;18.80;99.90;;;;;;5092139;28;20286;-69
2022/10/18 01:18:41;;;;;;;;;;;18.90;99.90;;;;;;5091552;28;19920;-66
2022/10/18 01:21:14;;;;;;;;;;;18.80;99.90;;;;;;5092040;28;19908;-68
2022/10/18 01:23:40;;;;;;;;;;;19.10;99.90;;;;;;5090788;28;20274;-67
2022/10/18 01:26:10;;;;;;;;;;;19.30;99.90;;;;;;5091895;28;20049;-68
2022/10/18 01:28:51;;;;;;;;;;;19.50;99.90;;;;;;5091545;28;19939;-66
2022/10/18 01:31:22;;;;;;;;;;;19.70;99.90;;;;;;5092015;28;20274;-68
2022/10/18 01:33:52;;;;;;;;;;;19.80;99.90;;;;;;5088996;28;20341;-65
2022/10/18 01:36:22;;;;;;;;;;;19.80;99.90;;;;;;5091885;28;19917;-73
2022/10/18 01:38:54;;;;;;;3.67;1.02;;;19.90;99.90;;;;;;5090486;28;20440;-67
2022/10/18 01:41:22;;;;;;;;;;;19.90;99.90;;;;;;5091872;28;20021;-69
2022/10/18 01:43:53;;;;;;;0.80;0.50;;;19.90;99.90;;;;;;5091356;28;19908;-70
2022/10/18 01:46:24;;;;;;;5.53;1.02;;;19.70;99.90;;;;;;5091313;28;20039;-77
2022/10/18 01:48:53;;;;;;;7.65;0.80;;;19.50;99.90;;;;;;5089571;28;20024;-72
2022/10/18 01:51:31;;;;;;;4.45;1.00;;;19.20;99.90;;;;;;5091360;28;20043;-67
2022/10/18 01:54:00;;;;;;;3.35;0.63;;;19.10;99.90;;;;;;5091286;28;20040;-70
2022/10/18 01:56:53;;;;;;;9.23;1.10;;;19.10;99.90;;;;;;5091168;28;20054;-68
2022/10/18 02:00:01;;;;;;;6.22;0.90;;;18.90;99.90;;;;;;5089945;28;20043;-67
2022/10/18 02:02:44;;;;;;;12.05;1.38;;;18.80;99.90;;;;;;5022389;28;20040;-69
2022/10/18 02:05:51;;;;;;;4.47;0.70;;;18.60;99.90;;;;;;5062918;28;20036;-67
2022/10/18 02:08:39;;;;;;;8.93;1.20;;;18.70;99.90;;;;;;5095011;28;20153;-69
2022/10/18 02:11:13;;;;;;;7.20;0.98;;;18.60;99.90;;;;;;5094714;28;20056;-65
2022/10/18 02:13:51;;;;;;;4.07;0.90;;;18.60;99.90;;;;;;5094740;28;20047;-65
2022/10/18 02:16:35;;;;;;;8.73;1.38;;;18.50;99.90;;;;;;5094789;28;20020;-67
2022/10/18 02:19:11;;;;;;;6.15;1.17;;;18.50;99.90;;;;;;5092888;28;20474;-69
2022/10/18 02:21:41;;;;;;;10.95;1.42;;;18.50;99.90;;;;;;5094765;28;20074;-66
2022/10/18 02:24:12;;;;;;;9.30;1.30;;;18.40;99.90;;;;;;5094589;28;20021;-67
2022/10/18 02:26:39;;;;;;;5.18;1.50;;;18.30;99.90;;;;;;5094394;28;20089;-71
2022/10/18 02:29:08;;;;;;;10.80;1.30;;;18.30;99.90;;;;;;5092755;28;20063;-67
2022/10/18 02:31:48;;;;;;;7.15;1.02;;;18.20;99.90;;;;;;5094531;28;20035;-67
2022/10/18 02:34:21;;;;;;;6.88;1.00;;;18.10;99.90;;;;;;5091038;28;20024;-69
2022/10/18 02:36:59;;;;;;;6.05;1.48;;;18.10;99.90;;;;;;5094348;28;20415;-70
2022/10/18 02:39:36;;;;;;;9.32;1.40;;;18.20;99.90;;;;;;5094031;28;20043;-67
2022/10/18 02:42:08;;;;;;;6.22;1.05;;;18.30;99.90;;;;;;5094320;28;20028;-68
2022/10/18 02:44:36;;;;;;;8.45;1.10;;;18.30;99.90;;;;;;5094248;28;20067;-66
2022/10/18 02:47:05;;;;;;;10.15;1.13;;;18.30;99.90;;;;;;5093037;28;20451;-68
2022/10/18 02:49:32;;;;;;;7.43;1.00;;;18.30;99.90;;;;;;5093702;28;20028;-66
2022/10/18 02:52:00;;;;;;;9.80;1.38;;;18.30;99.90;;;;;;5093762;28;20489;-66
2022/10/18 02:54:27;;;;;;;11.52;1.45;;;18.30;99.90;;;;;;5094032;28;20463;-67
2022/10/18 02:56:54;;;;;;;5.57;0.90;;;18.30;99.90;;;;;;5093887;28;20097;-68
2022/10/18 02:59:22;;;;;;;8.43;1.27;;;18.20;99.90;;;;;;5093494;28;20514;-67
2022/10/18 03:01:49;;;;;;;8.65;1.45;;;18.20;99.90;;;;;;5077619;28;20033;-67
2022/10/18 03:04:16;;;;;;;7.88;1.20;;;18.20;99.90;;;;;;5094058;28;20390;-65
2022/10/18 03:06:44;;;;;;;8.20;1.67;;;18.20;99.90;;;;;;5094130;28;20031;-70
2022/10/18 03:09:11;;;;;;;7.10;1.20;;;18.20;99.90;;;;;;5092201;28;20106;-68
2022/10/18 03:11:38;;;;;;;5.72;1.55;;;18.30;99.90;;;;;;5093758;28;20501;-68
2022/10/18 03:14:06;;;;;;;8.95;1.95;;;18.30;99.90;;;;;;5092250;28;20024;-70
2022/10/18 03:16:33;;;;;;;11.63;1.25;;;18.30;99.90;;;;;;5092484;28;20024;-66
2022/10/18 03:19:00;;;;;;;9.10;1.27;;;18.40;99.90;;;;;;5092769;28;20040;-67
2022/10/18 03:21:28;;;;;;;3.95;0.95;;;18.30;99.90;;;;;;5093716;28;20114;-68
2022/10/18 03:23:57;;;;;;;6.03;1.00;;;18.30;99.90;;;;;;5093553;28;20397;-68
2022/10/18 03:26:24;;;;;;;7.45;1.42;;;18.30;99.90;;;;;;5093581;28;20028;-70
2022/10/18 03:28:52;;;;;;;8.77;1.30;;;18.40;99.90;;;;;;5092833;28;20062;-68
2022/10/18 03:31:19;;;;;;;10.23;1.45;;;18.40;99.90;;;;;;5091542;28;20125;-68
2022/10/18 03:33:47;;;;;;;8.65;2.35;;;18.30;99.90;;;;;;5093428;28;20024;-69
2022/10/18 03:36:14;;;;;;;8.90;1.63;;;18.20;99.90;;;;;;5093256;28;20028;-67
2022/10/18 03:38:42;;;;;;;8.48;1.38;;;18.20;99.90;;;;;;5092561;28;20534;-70
2022/10/18 03:41:09;;;;;;;5.95;1.00;;;18.20;99.90;;;;;;5093344;28;20466;-72
2022/10/18 03:43:36;;;;;;;7.75;1.27;;;18.10;99.90;;;;;;5092932;28;20447;-67
2022/10/18 03:46:04;;;;;;;9.52;1.83;;;18.00;99.90;;;;;;5092036;28;20031;-68
2022/10/18 03:48:31;;;;;;;7.53;1.20;;;17.80;99.90;;;;;;5091446;28;20035;-68
2022/10/18 03:50:59;;;;;;;6.90;1.50;;;17.70;99.90;;;;;;5092815;28;20106;-68
2022/10/18 03:53:26;;;;;;;7.00;1.60;;;17.70;99.90;;;;;;5093088;28;20024;-67
2022/10/18 03:55:55;;;;;;;9.07;1.25;;;17.70;99.90;;;;;;5093286;28;20085;-69
2022/10/18 03:58:23;;;;;;;9.38;1.52;;;17.60;99.90;;;;;;5092810;28;20107;-67
2022/10/18 04:00:52;;;;;;;6.57;1.40;;;17.60;99.90;;;;;;5084702;28;20024;-67
2022/10/18 04:03:21;;;;;;;5.30;1.20;;;17.60;99.90;;;;;;5091597;28;20020;-66
2022/10/18 04:05:49;;;;;;;7.72;1.45;;;17.60;99.90;;;;;;5092595;28;20096;-69
2022/10/18 04:08:17;;;;;;;7.68;1.75;;;17.60;99.90;;;;;;5092594;28;20081;-66
2022/10/18 04:10:45;;;;;;;7.95;1.42;;;17.60;99.90;;;;;;5091625;28;20028;-67
2022/10/18 04:13:13;;;;;;;8.50;1.75;;;17.70;99.90;;;;;;5092277;28;20056;-69
2022/10/18 04:15:40;;;;;;;5.75;1.20;;;17.60;99.90;;;;;;5091319;28;20481;-68
2022/10/18 04:18:07;;;;;;;5.90;1.25;;;17.60;99.90;;;;;;5091096;28;20052;-67
2022/10/18 04:20:35;;;;;;;6.95;1.10;;;17.70;99.90;;;;;;5092070;28;20016;-67
2022/10/18 04:23:02;;;;;;;6.07;1.55;;;17.80;99.90;;;;;;5092299;28;20027;-67
2022/10/18 04:25:29;;;;;;;5.53;1.33;;;17.80;99.90;;;;;;5092244;28;20032;-69
2022/10/18 04:27:56;;;;;;;12.27;2.60;;;17.80;99.90;;;;;;5091635;28;20020;-70
2022/10/18 04:30:24;;;;;;;4.15;1.10;;;17.80;99.90;;;;;;5089965;28;20475;-70
2022/10/18 04:32:51;;;;;;;10.70;1.77;;;17.90;99.90;;;;;;5091799;28;20032;-70
2022/10/18 04:35:23;;;;;;;6.32;1.40;;;17.90;99.90;;;;;;5092291;28;20432;-72
2022/10/18 04:37:51;;;;;;;11.07;1.80;;;18.00;99.90;;;;;;5092266;28;20119;-68
2022/10/18 04:40:20;;;;;;;6.43;1.63;;;18.00;99.90;;;;;;5091818;28;20028;-71
2022/10/18 04:42:48;;;;;;;8.57;1.65;;;18.10;99.90;;;;;;5091909;28;20054;-70
2022/10/18 04:45:15;;;;;;;9.32;1.70;;;18.10;99.90;;;;;;5091070;28;20091;-71
2022/10/18 04:47:42;;;;;;;9.63;1.65;;;18.10;99.90;;;;;;5091948;28;20044;-70
2022/10/18 04:50:10;;;;;;;5.35;1.50;;;18.10;99.90;;;;;;5091642;28;20438;-71
2022/10/18 04:52:37;;;;;;;6.65;1.40;;;18.10;99.90;;;;;;5091730;28;20411;-72
2022/10/18 04:55:06;;;;;;;10.98;2.35;;;18.20;99.90;;;;;;5091970;28;20502;-71
2022/10/18 04:57:33;;;;;;;9.77;1.20;;;18.20;99.90;;;;;;5091770;28;20028;-69
2022/10/18 05:00:00;;;;;;;12.68;2.28;;;18.10;99.90;;;;;;5087858;28;20024;-69
2022/10/18 05:02:28;;;;;;;9.32;1.58;;;18.10;99.90;;;;;;5071445;28;20036;-70
2022/10/18 05:04:55;;;;;;;6.75;1.58;;;18.10;99.90;;;;;;5071414;28;20040;-71
2022/10/18 05:07:22;;;;;;;8.70;1.42;;;18.10;99.90;;;;;;5071555;28;20050;-69
2022/10/18 05:09:50;;;;;;;6.10;1.65;;;18.00;99.90;;;;;;5071135;28;20027;-70
2022/10/18 05:12:17;;;;;;;8.32;1.40;;;17.90;99.90;;;;;;5071368;28;20031;-67
2022/10/18 05:14:44;;;;;;;10.00;1.60;;;17.90;99.90;;;;;;5070588;28;20085;-68
2022/10/18 05:17:12;;;;;;;7.03;1.65;;;17.80;99.90;;;;;;5091561;28;20039;-71
2022/10/18 05:19:39;;;;;;;3.17;1.10;;;17.80;99.90;;;;;;5090996;28;20051;-71
2022/10/18 05:22:07;;;;;;;6.90;1.73;;;17.80;99.90;;;;;;5091487;28;20028;-68
2022/10/18 05:24:34;;;;;;;6.03;1.40;;;17.70;99.90;;;;;;5091445;28;20466;-71
2022/10/18 05:27:01;;;;;;;7.35;1.40;;;17.70;99.90;;;;;;5091307;28;20024;-69
2022/10/18 05:29:29;;;;;;;10.50;2.38;;;17.70;99.90;;;;;;5089114;28;20097;-69
2022/10/18 05:31:56;;;;;;;5.90;1.50;;;17.70;99.90;;;;;;5091143;28;20096;-69
